createdAt,value
2022-09-01T00:01:43.987Z,99942.72
2022-09-01T00:03:49.212Z,99943.56
2022-09-01T00:05:57.098Z,99937.53
2022-09-01T00:07:58.814Z,99942.47
2022-09-01T00:10:00.751Z,99930.66
2022-09-01T00:12:04.967Z,99922.63
2022-09-01T00:14:30.224Z,99924.28
2022-09-01T00:16:31.080Z,99932.38
2022-09-01T00:18:32.868Z,99931.50
2022-09-01T00:20:34.621Z,99941.81
2022-09-01T00:22:36.478Z,99948.09
2022-09-01T00:24:38.308Z,99934.28
2022-09-01T00:26:40.211Z,99933.44
2022-09-01T00:28:41.939Z,99947.47
2022-09-01T00:30:43.601Z,99945.09
2022-09-01T00:32:46.893Z,99930.94
2022-09-01T00:34:48.595Z,99942.69
2022-09-01T00:36:50.584Z,99944.59
2022-09-01T00:38:52.402Z,99934.78
2022-09-01T00:40:54.798Z,99933.97
2022-09-01T00:42:56.435Z,99939.81
2022-09-01T00:44:58.028Z,99934.69
2022-09-01T00:47:00.243Z,99952.63
2022-09-01T00:49:08.080Z,99935.38
2022-09-01T00:51:11.098Z,99936.00
2022-09-01T00:53:13.523Z,99928.56
2022-09-01T00:55:24.809Z,99922.78
2022-09-01T00:57:27.543Z,99925.66
2022-09-01T00:59:29.687Z,99929.19
2022-09-01T01:01:31.288Z,99936.41
2022-09-01T01:03:33.055Z,99937.63
2022-09-01T01:05:40.643Z,99921.50
2022-09-01T01:07:47.591Z,99926.53
2022-09-01T01:09:50.979Z,99926.41
2022-09-01T01:11:53.435Z,99922.78
2022-09-01T01:14:12.182Z,99912.75
2022-09-01T01:16:15.991Z,99928.44
2022-09-01T01:18:23.202Z,99921.47
2022-09-01T01:20:46.859Z,99927.44
2022-09-01T01:23:05.788Z,99926.31
2022-09-01T01:25:07.979Z,99906.63
2022-09-01T01:27:09.549Z,99920.63
2022-09-01T01:29:11.803Z,99923.59
2022-09-01T01:31:19.534Z,99929.69
2022-09-01T01:33:25.412Z,99919.22
2022-09-01T01:35:27.758Z,99937.38
2022-09-01T01:37:29.924Z,99931.84
2022-09-01T01:39:32.633Z,99930.53
2022-09-01T01:41:36.192Z,99923.59
2022-09-01T01:43:38.881Z,99927.94
2022-09-01T01:45:40.472Z,99932.66
2022-09-01T01:47:42.391Z,99930.19
2022-09-01T01:49:44.142Z,99939.63
2022-09-01T01:51:47.390Z,99926.06
2022-09-01T01:53:52.746Z,99936.28
2022-09-01T01:55:56.166Z,99930.50
2022-09-01T01:57:59.285Z,99929.38
2022-09-01T02:00:01.687Z,99933.00
2022-09-01T02:02:08.689Z,99917.38
2022-09-01T02:04:11.514Z,99920.44
2022-09-01T02:06:13.295Z,99919.56
2022-09-01T02:08:15.844Z,99913.81
2022-09-01T02:10:17.548Z,99930.06
2022-09-01T02:12:19.500Z,99935.66
2022-09-01T02:14:21.826Z,99910.16
2022-09-01T02:16:25.667Z,99910.97
2022-09-01T02:18:34.250Z,99907.25
2022-09-01T02:20:36.801Z,99908.97
2022-09-01T02:22:39.508Z,99916.97
2022-09-01T02:24:51.484Z,99916.50
2022-09-01T02:26:53.126Z,99911.19
2022-09-01T02:28:56.113Z,99899.78
2022-09-01T02:30:59.808Z,99913.06
2022-09-01T02:33:01.913Z,99914.69
2022-09-01T02:35:07.350Z,99900.59
2022-09-01T02:37:08.966Z,99906.88
2022-09-01T02:39:11.455Z,99888.00
2022-09-01T02:41:15.454Z,99902.88
2022-09-01T02:43:20.695Z,99926.03
2022-09-01T02:45:24.143Z,99910.78
2022-09-01T02:47:28.105Z,99903.94
2022-09-01T02:49:31.468Z,99908.53
2022-09-01T02:51:33.424Z,99908.72
2022-09-01T02:53:35.988Z,99920.53
2022-09-01T02:55:41.024Z,99920.75
2022-09-01T02:57:42.644Z,99911.78
2022-09-01T02:59:44.237Z,99913.16
2022-09-01T03:01:46.941Z,99921.75
2022-09-01T03:03:50.262Z,99908.38
2022-09-01T03:05:56.448Z,99899.38
2022-09-01T03:08:02.298Z,99894.53
2022-09-01T03:10:09.743Z,99910.97
2022-09-01T03:12:11.421Z,99896.91
2022-09-01T03:14:13.384Z,99893.53
2022-09-01T03:16:16.300Z,99907.56
2022-09-01T03:18:21.117Z,99917.13
2022-09-01T03:20:22.828Z,99915.72
2022-09-01T03:22:24.473Z,99907.72
2022-09-01T03:24:26.297Z,99901.47
2022-09-01T03:26:27.924Z,99914.63
2022-09-01T03:28:29.959Z,99903.81
2022-09-01T03:30:35.397Z,99916.03
2022-09-01T03:32:37.159Z,99899.06
2022-09-01T03:34:39.570Z,99910.84
2022-09-01T03:36:50.344Z,99922.25
2022-09-01T03:38:53.045Z,99910.84
2022-09-01T03:41:02.193Z,99903.88
2022-09-01T03:43:06.384Z,99928.50
2022-09-01T03:45:09.195Z,99919.50
2022-09-01T03:47:11.319Z,99911.84
2022-09-01T03:49:17.631Z,99906.72
2022-09-01T03:51:22.793Z,99904.13
2022-09-01T03:53:27.452Z,99920.16
2022-09-01T03:55:32.450Z,99915.66
2022-09-01T03:57:34.540Z,99902.63
2022-09-01T03:59:39.067Z,99912.28
2022-09-01T04:01:43.838Z,99919.88
2022-09-01T04:03:47.632Z,99923.63
2022-09-01T04:05:51.340Z,99928.38
2022-09-01T04:07:52.943Z,99927.44
2022-09-01T04:09:54.679Z,99915.31
2022-09-01T04:11:56.280Z,99922.53
2022-09-01T04:13:58.542Z,99925.06
2022-09-01T04:16:00.208Z,99928.22
2022-09-01T04:18:12.042Z,99919.78
2022-09-01T04:20:15.407Z,99913.34
2022-09-01T04:22:29.254Z,99922.03
2022-09-01T04:24:32.925Z,99908.88
2022-09-01T04:26:34.496Z,99907.25
2022-09-01T04:28:48.324Z,99911.84
2022-09-01T04:30:53.213Z,99907.56
2022-09-01T04:32:56.172Z,99922.13
2022-09-01T04:34:58.015Z,99901.47
2022-09-01T04:36:59.628Z,99920.13
2022-09-01T04:39:08.794Z,99919.38
2022-09-01T04:41:17.692Z,99911.53
2022-09-01T04:43:19.700Z,99908.28
2022-09-01T04:45:27.355Z,99931.41
2022-09-01T04:47:36.163Z,99918.66
2022-09-01T04:49:38.179Z,99917.72
2022-09-01T04:51:42.395Z,99920.69
2022-09-01T04:53:48.850Z,99907.16
2022-09-01T04:55:52.543Z,99921.53
2022-09-01T04:57:54.859Z,99916.63
2022-09-01T05:02:27.344Z,99842.50
2022-09-01T05:04:35.148Z,99861.97
2022-09-01T05:06:39.538Z,99886.19
2022-09-01T05:08:42.054Z,99865.66
2022-09-01T05:10:53.239Z,99876.13
2022-09-01T05:12:54.786Z,99903.19
2022-09-01T05:14:56.730Z,99882.00
2022-09-01T05:16:59.110Z,99904.31
2022-09-01T05:19:01.563Z,99901.91
2022-09-01T05:21:09.973Z,99890.13
2022-09-01T05:23:13.187Z,99906.53
2022-09-01T05:25:14.897Z,99911.00
2022-09-01T05:27:18.164Z,99901.69
2022-09-01T05:29:21.118Z,99904.88
2022-09-01T05:31:24.595Z,99922.47
2022-09-01T05:33:26.308Z,99918.63
2022-09-01T05:35:32.723Z,99894.59
2022-09-01T05:37:37.597Z,99914.03
2022-09-01T05:39:39.569Z,99898.13
2022-09-01T05:41:41.582Z,99906.25
2022-09-01T05:43:48.297Z,99901.91
2022-09-01T05:46:06.085Z,99916.16
2022-09-01T05:48:09.478Z,99916.50
2022-09-01T05:50:14.599Z,99905.19
2022-09-01T05:52:16.527Z,99908.31
2022-09-01T05:54:23.183Z,99931.72
2022-09-01T05:56:28.977Z,99913.47
2022-09-01T05:59:22.623Z,99921.97
2022-09-01T06:00:55.951Z,99917.94
2022-09-01T06:02:58.166Z,99911.91
2022-09-01T06:05:00.381Z,99932.44
2022-09-01T06:07:06.017Z,99929.63
2022-09-01T06:09:10.608Z,99925.47
2022-09-01T06:11:17.763Z,99914.13
2022-09-01T06:13:21.967Z,99913.78
2022-09-01T06:15:30.876Z,99902.50
2022-09-01T06:17:35.897Z,99887.63
2022-09-01T06:19:40.084Z,99923.38
2022-09-01T06:21:42.358Z,99916.19
2022-09-01T06:23:45.031Z,99915.00
2022-09-01T06:25:47.609Z,99919.63
2022-09-01T06:27:49.462Z,99933.88
2022-09-01T06:29:53.711Z,99944.56
2022-09-01T06:31:56.843Z,99936.34
2022-09-01T06:33:59.996Z,99923.94
2022-09-01T06:36:04.072Z,99904.28
2022-09-01T06:38:07.021Z,99904.25
2022-09-01T06:40:17.210Z,99929.44
2022-09-01T06:42:19.916Z,99942.38
2022-09-01T06:44:25.102Z,99939.72
2022-09-01T06:46:27.964Z,99934.75
2022-09-01T06:48:30.924Z,99922.25
2022-09-01T06:55:23.146Z,99923.41
2022-09-01T06:59:50.500Z,99941.06
2022-09-01T07:02:01.448Z,99935.81
2022-09-01T07:04:04.144Z,99947.13
2022-09-01T07:06:07.393Z,99936.38
2022-09-01T07:08:17.907Z,99945.91
2022-09-01T07:10:22.763Z,99951.59
2022-09-01T07:12:25.745Z,99933.25
2022-09-01T07:17:29.436Z,99962.47
2022-09-01T07:19:48.888Z,99967.88
2022-09-01T07:24:13.035Z,99973.63
2022-09-01T07:26:24.679Z,99942.88
2022-09-01T07:28:39.916Z,99967.41
2022-09-01T07:30:48.641Z,99967.75
2022-09-01T07:32:50.653Z,99972.19
2022-09-01T07:34:52.434Z,99984.38
2022-09-01T07:37:17.352Z,99963.56
2022-09-01T07:44:05.439Z,99963.31
2022-09-01T07:49:01.887Z,99977.72
2022-09-01T07:53:22.635Z,99968.38
2022-09-01T07:55:24.294Z,99975.25
2022-09-01T07:57:26.551Z,99976.91
2022-09-01T07:59:29.537Z,99984.91
2022-09-01T08:01:31.239Z,99978.94
2022-09-01T08:03:33.095Z,99987.31
2022-09-01T08:05:34.804Z,99975.91
2022-09-01T08:07:51.623Z,99965.06
2022-09-01T08:09:56.016Z,99987.03
2022-09-01T08:12:02.297Z,99987.22
2022-09-01T08:14:04.687Z,99983.66
2022-09-01T08:16:08.702Z,100000.47
2022-09-01T08:18:13.856Z,99962.94
2022-09-01T08:20:15.809Z,99998.09
2022-09-01T08:22:17.403Z,100012.75
2022-09-01T08:24:19.625Z,99999.13
2022-09-01T08:26:25.159Z,99995.31
2022-09-01T08:28:27.062Z,99983.81
2022-09-01T08:30:30.063Z,99995.72
2022-09-01T08:32:32.327Z,99997.38
2022-09-01T08:34:35.191Z,99992.56
2022-09-01T08:36:36.860Z,100005.75
2022-09-01T08:38:39.704Z,100006.34
2022-09-01T08:40:49.570Z,100002.34
2022-09-01T08:43:06.690Z,99991.88
2022-09-01T08:45:15.763Z,100005.41
2022-09-01T08:47:28.747Z,99979.19
2022-09-01T08:49:43.043Z,99987.63
2022-09-01T08:51:57.333Z,99998.13
2022-09-01T08:54:14.807Z,99990.53
2022-09-01T08:56:19.974Z,100001.25
2022-09-01T08:58:22.277Z,99986.22
2022-09-01T09:00:27.600Z,99988.41
2022-09-01T09:02:40.539Z,99985.41
2022-09-01T09:05:02.250Z,99992.69
2022-09-01T09:07:06.906Z,99975.28
2022-09-01T09:09:09.335Z,99994.78
2022-09-01T09:11:32.295Z,99996.94
2022-09-01T09:13:42.639Z,100013.84
2022-09-01T09:16:07.468Z,99999.78
2022-09-01T09:18:34.506Z,99993.22
2022-09-01T09:20:38.371Z,100012.00
2022-09-01T09:22:44.925Z,99995.91
2022-09-01T09:25:10.832Z,99997.81
2022-09-01T09:27:24.300Z,99988.56
2022-09-01T09:29:27.301Z,99981.59
2022-09-01T09:31:38.661Z,99983.94
2022-09-01T09:33:55.735Z,99991.19
2022-09-01T09:36:17.117Z,99976.88
2022-09-01T09:38:33.059Z,99983.91
2022-09-01T09:40:53.233Z,99984.72
2022-09-01T09:42:56.639Z,99981.25
2022-09-01T09:44:59.069Z,99986.47
2022-09-01T09:47:01.350Z,99980.81
2022-09-01T09:49:34.896Z,99983.34
2022-09-01T09:51:41.924Z,99986.53
2022-09-01T09:53:43.504Z,99967.88
2022-09-01T09:56:30.303Z,99968.34
2022-09-01T09:58:41.568Z,99988.38
2022-09-01T10:01:05.111Z,99970.41
2022-09-01T10:03:12.258Z,99989.13
2022-09-01T10:05:35.346Z,99984.31
2022-09-01T10:07:38.070Z,99979.88
2022-09-01T10:09:39.659Z,99980.06
2022-09-01T10:11:44.998Z,99981.78
2022-09-01T10:13:46.616Z,99965.84
2022-09-01T10:15:52.165Z,99981.28
2022-09-01T10:18:20.530Z,99967.66
2022-09-01T10:20:26.760Z,99965.56
2022-09-01T10:22:28.340Z,99978.31
2022-09-01T10:24:38.896Z,99971.47
2022-09-01T10:26:43.302Z,99969.63
2022-09-01T10:28:57.664Z,99976.91
2022-09-01T10:31:00.281Z,99970.00
2022-09-01T10:33:07.982Z,99976.09
2022-09-01T10:35:26.181Z,99958.25
2022-09-01T10:37:28.212Z,99957.41
2022-09-01T10:39:31.099Z,99970.44
2022-09-01T10:41:53.258Z,99962.63
2022-09-01T10:44:19.307Z,99948.34
2022-09-01T10:46:39.049Z,99970.72
2022-09-01T10:48:55.766Z,99961.47
2022-09-01T10:51:18.256Z,99943.13
2022-09-01T10:53:35.608Z,99951.22
2022-09-01T10:56:03.509Z,99958.63
2022-09-01T11:03:42.233Z,99905.72
2022-09-01T11:06:11.338Z,99913.72
2022-09-01T11:08:51.029Z,99912.13
2022-09-01T11:11:07.999Z,99923.94
2022-09-01T11:13:51.415Z,99918.16
2022-09-01T11:15:53.682Z,99928.13
2022-09-01T11:17:59.662Z,99932.84
2022-09-01T11:20:12.798Z,99933.34
2022-09-01T11:22:14.350Z,99933.00
2022-09-01T11:24:38.311Z,99932.72
2022-09-01T11:26:49.718Z,99921.06
2022-09-01T11:28:51.333Z,99927.41
2022-09-01T11:31:08.708Z,99924.00
2022-09-01T11:33:26.229Z,99912.38
2022-09-01T11:35:29.033Z,99919.91
2022-09-01T11:37:31.077Z,99921.88
2022-09-01T11:39:34.841Z,99916.84
2022-09-01T11:42:04.391Z,99898.59
2022-09-01T11:44:32.447Z,99886.41
2022-09-01T11:46:36.794Z,99900.28
2022-09-01T11:48:47.116Z,99899.72
2022-09-01T11:50:59.804Z,99920.19
2022-09-01T11:53:06.349Z,99923.25
2022-09-01T11:55:10.231Z,99905.06
2022-09-01T11:57:38.825Z,99911.78
2022-09-01T11:59:40.491Z,99915.38
2022-09-01T12:01:42.055Z,99904.41
2022-09-01T12:03:44.528Z,99904.66
2022-09-01T12:05:50.220Z,99907.53
2022-09-01T12:07:52.745Z,99912.81
2022-09-01T12:09:54.396Z,99914.16
2022-09-01T12:11:56.373Z,99913.84
2022-09-01T12:14:04.721Z,99908.00
2022-09-01T12:16:19.036Z,99899.53
2022-09-01T12:18:27.829Z,99890.69
2022-09-01T12:20:35.245Z,99907.94
2022-09-01T12:22:36.981Z,99900.59
2022-09-01T12:24:38.629Z,99894.41
2022-09-01T12:26:41.501Z,99895.53
2022-09-01T12:28:44.010Z,99886.16
2022-09-01T12:30:47.747Z,99882.84
2022-09-01T12:32:49.984Z,99879.59
2022-09-01T12:35:10.811Z,99894.97
2022-09-01T12:37:16.030Z,99887.53
2022-09-01T12:39:17.530Z,99885.31
2022-09-01T12:41:36.544Z,99869.84
2022-09-01T12:43:40.763Z,99878.88
2022-09-01T12:45:47.584Z,99873.47
2022-09-01T12:47:50.973Z,99887.91
2022-09-01T12:49:55.444Z,99882.19
2022-09-01T12:52:28.228Z,99872.59
2022-09-01T12:54:29.954Z,99885.75
2022-09-01T12:56:36.169Z,99882.19
2022-09-01T12:58:37.793Z,99892.31
2022-09-01T13:01:02.896Z,99878.91
2022-09-01T13:03:17.907Z,99869.84
2022-09-01T13:05:30.591Z,99875.94
2022-09-01T13:07:33.608Z,99872.06
2022-09-01T13:09:35.346Z,99859.94
2022-09-01T13:13:58.559Z,99862.50
2022-09-01T13:16:02.669Z,99864.09
2022-09-01T13:18:04.638Z,99866.03
2022-09-01T13:20:07.903Z,99863.03
2022-09-01T13:22:10.102Z,99846.94
2022-09-01T13:24:11.791Z,99861.13
2022-09-01T13:26:13.459Z,99858.66
2022-09-01T13:28:17.325Z,99840.38
2022-09-01T13:30:22.335Z,99842.25
2022-09-01T13:32:25.245Z,99851.31
2022-09-01T13:34:28.716Z,99856.97
2022-09-01T13:36:51.149Z,99837.00
2022-09-01T13:38:52.205Z,99854.03
2022-09-01T13:40:58.006Z,99855.13
2022-09-01T13:42:59.692Z,99842.81
2022-09-01T13:45:01.714Z,99840.38
2022-09-01T13:51:53.969Z,99836.50
2022-09-01T13:53:55.599Z,99827.41
2022-09-01T13:58:04.309Z,99823.16
2022-09-01T14:00:12.477Z,99832.00
2022-09-01T14:02:14.164Z,99826.00
2022-09-01T14:04:15.885Z,99829.38
2022-09-01T14:06:17.535Z,99815.16
2022-09-01T14:08:21.517Z,99806.34
2022-09-01T14:10:24.962Z,99819.25
2022-09-01T14:12:26.701Z,99804.06
2022-09-01T14:15:11.244Z,99809.34
2022-09-01T14:16:50.300Z,99820.88
2022-09-01T14:18:51.959Z,99808.34
2022-09-01T14:20:54.619Z,99810.78
2022-09-01T14:22:56.198Z,99824.63
2022-09-01T14:24:59.418Z,99824.44
2022-09-01T14:27:00.986Z,99810.72
2022-09-01T14:29:02.904Z,99811.28
2022-09-01T14:31:11.616Z,99800.13
2022-09-01T14:33:13.342Z,99801.34
2022-09-01T14:35:16.187Z,99801.09
2022-09-01T14:37:17.808Z,99782.53
2022-09-01T14:39:19.492Z,99789.69
2022-09-01T14:41:23.943Z,99768.78
2022-09-01T14:43:28.681Z,99785.63
2022-09-01T14:45:30.272Z,99780.78
2022-09-01T14:47:32.083Z,99770.38
2022-09-01T14:49:37.050Z,99770.66
2022-09-01T14:54:00.543Z,99770.16
2022-09-01T14:56:03.032Z,99768.94
2022-09-01T14:58:05.110Z,99759.75
2022-09-01T15:00:12.459Z,99754.75
2022-09-01T15:02:14.386Z,99761.13
2022-09-01T15:04:16.034Z,99759.50
2022-09-01T15:06:19.920Z,99755.63
2022-09-01T15:08:23.960Z,99769.22
2022-09-01T15:10:27.276Z,99764.44
2022-09-01T15:12:31.096Z,99763.66
2022-09-01T15:14:33.063Z,99756.09
2022-09-01T15:16:39.578Z,99740.34
2022-09-01T15:18:41.284Z,99760.19
2022-09-01T15:20:46.330Z,99753.44
2022-09-01T15:22:49.734Z,99766.72
2022-09-01T15:24:51.298Z,99741.38
2022-09-01T15:26:53.091Z,99758.69
2022-09-01T15:28:56.962Z,99756.19
2022-09-01T15:31:00.269Z,99750.16
2022-09-01T15:33:02.138Z,99735.72
2022-09-01T15:35:03.939Z,99748.66
2022-09-01T15:37:07.418Z,99742.22
2022-09-01T15:39:10.639Z,99731.66
2022-09-01T15:41:26.855Z,99743.06
2022-09-01T15:43:29.035Z,99740.19
2022-09-01T15:45:30.713Z,99726.91
2022-09-01T15:47:34.566Z,99731.94
2022-09-01T15:49:36.179Z,99720.94
2022-09-01T15:51:43.527Z,99741.16
2022-09-01T15:53:45.626Z,99726.88
2022-09-01T15:55:49.717Z,99731.72
2022-09-01T15:57:52.542Z,99740.50
2022-09-01T15:59:54.366Z,99746.91
2022-09-01T16:01:56.216Z,99741.34
2022-09-01T16:03:57.946Z,99742.31
2022-09-01T16:06:01.169Z,99734.59
2022-09-01T16:08:04.839Z,99727.63
2022-09-01T16:10:11.347Z,99730.75
2022-09-01T16:12:12.940Z,99741.06
2022-09-01T16:14:16.080Z,99749.53
2022-09-01T16:16:40.498Z,99725.09
2022-09-01T16:18:59.006Z,99729.69
2022-09-01T16:21:36.670Z,99710.94
2022-09-01T16:23:43.087Z,99713.03
2022-09-01T16:25:45.667Z,99711.84
2022-09-01T16:27:47.278Z,99703.09
2022-09-01T16:29:55.160Z,99696.50
2022-09-01T16:31:56.908Z,99711.25
2022-09-01T16:34:03.752Z,99706.16
2022-09-01T16:36:08.512Z,99705.06
2022-09-01T16:38:31.244Z,99701.47
2022-09-01T16:40:56.357Z,99726.22
2022-09-01T16:43:37.902Z,99723.72
2022-09-01T16:45:43.310Z,99711.94
2022-09-01T16:48:13.184Z,99709.97
2022-09-01T16:50:26.959Z,99713.09
2022-09-01T16:52:42.477Z,99708.34
2022-09-01T16:55:05.214Z,99708.84
2022-09-01T16:57:19.549Z,99702.66
2022-09-01T16:59:38.068Z,99710.16
2022-09-01T17:01:39.631Z,99709.94
2022-09-01T17:03:54.239Z,99705.59
2022-09-01T17:06:02.734Z,99710.28
2022-09-01T17:08:26.551Z,99706.31
2022-09-01T17:10:33.693Z,99708.84
2022-09-01T17:12:38.415Z,99712.41
2022-09-01T17:14:49.458Z,99702.25
2022-09-01T17:16:55.343Z,99699.94
2022-09-01T17:19:00.291Z,99707.91
2022-09-01T17:21:33.312Z,99715.53
2022-09-01T17:23:41.026Z,99704.09
2022-09-01T17:25:54.310Z,99708.16
2022-09-01T17:28:02.213Z,99710.03
2022-09-01T17:30:07.207Z,99714.34
2022-09-01T17:32:33.073Z,99705.69
2022-09-01T17:35:01.580Z,99703.16
2022-09-01T17:37:15.719Z,99705.75
2022-09-01T17:39:26.274Z,99705.69
2022-09-01T17:41:44.575Z,99718.47
2022-09-01T17:44:30.751Z,99711.31
2022-09-01T17:46:48.079Z,99718.53
2022-09-01T17:48:54.958Z,99715.41
2022-09-01T17:51:12.566Z,99725.38
2022-09-01T17:53:59.540Z,99724.38
2022-09-01T17:56:25.511Z,99726.53
2022-09-01T17:58:27.119Z,99728.53
2022-09-01T18:00:40.273Z,99728.41
2022-09-01T18:03:26.112Z,99722.22
2022-09-01T18:05:29.533Z,99723.66
2022-09-01T18:07:56.647Z,99725.66
2022-09-01T18:10:02.589Z,99730.06
2022-09-01T18:12:17.090Z,99728.44
2022-09-01T18:14:24.398Z,99729.84
2022-09-01T18:16:30.991Z,99719.28
2022-09-01T18:18:37.440Z,99726.53
2022-09-01T18:20:41.887Z,99727.78
2022-09-01T18:23:00.672Z,99731.03
2022-09-01T18:25:07.654Z,99726.66
2022-09-01T18:27:09.262Z,99737.06
2022-09-01T18:29:11.070Z,99737.06
2022-09-01T18:31:18.299Z,99745.28
2022-09-01T18:33:33.074Z,99742.00
2022-09-01T18:35:34.753Z,99758.81
2022-09-01T18:38:03.784Z,99756.19
2022-09-01T18:40:11.391Z,99748.97
2022-09-01T18:42:40.475Z,99761.13
2022-09-01T18:45:12.077Z,99755.06
2022-09-01T18:47:17.117Z,99755.19
2022-09-01T18:49:47.124Z,99752.53
2022-09-01T18:52:01.251Z,99767.75
2022-09-01T18:54:18.190Z,99770.22
2022-09-01T18:56:37.401Z,99771.44
2022-09-01T18:58:52.062Z,99766.53
2022-09-01T19:01:04.002Z,99775.31
2022-09-01T19:03:39.148Z,99776.59
2022-09-01T19:05:59.768Z,99773.66
2022-09-01T19:08:20.964Z,99767.69
2022-09-01T19:10:52.674Z,99766.81
2022-09-01T19:13:30.384Z,99778.91
2022-09-01T19:15:38.083Z,99775.84
2022-09-01T19:17:58.558Z,99769.88
2022-09-01T19:20:03.176Z,99775.84
2022-09-01T19:22:04.967Z,99771.88
2022-09-01T19:24:20.441Z,99752.38
2022-09-01T19:26:25.203Z,99772.00
2022-09-01T19:28:43.843Z,99771.50
2022-09-01T19:30:54.916Z,99779.97
2022-09-01T19:32:59.518Z,99769.81
2022-09-01T19:35:12.080Z,99772.06
2022-09-01T19:37:13.880Z,99776.94
2022-09-01T19:39:19.938Z,99787.31
2022-09-01T19:41:33.016Z,99787.09
2022-09-01T19:43:40.425Z,99782.16
2022-09-01T19:46:31.469Z,99793.63
2022-09-01T19:48:44.723Z,99785.13
2022-09-01T19:50:52.211Z,99783.00
2022-09-01T19:53:00.598Z,99793.38
2022-09-01T19:55:10.164Z,99800.88
2022-09-01T19:57:55.919Z,99778.03
2022-09-01T20:00:00.427Z,99779.91
2022-09-01T20:02:21.400Z,99776.38
2022-09-01T20:04:41.228Z,99784.69
2022-09-01T20:06:48.016Z,99776.94
2022-09-01T20:09:15.198Z,99770.94
2022-09-01T20:11:55.742Z,99796.00
2022-09-01T20:14:02.171Z,99780.69
2022-09-01T20:16:05.909Z,99784.88
2022-09-01T20:18:16.639Z,99796.91
2022-09-01T20:20:24.634Z,99776.97
2022-09-01T20:22:38.173Z,99778.97
2022-09-01T20:24:40.008Z,99781.56
2022-09-01T20:27:03.831Z,99777.56
2022-09-01T20:29:37.815Z,99772.41
2022-09-01T20:31:45.501Z,99771.19
2022-09-01T20:33:56.067Z,99766.81
2022-09-01T20:36:07.094Z,99778.81
2022-09-01T20:38:41.830Z,99781.44
2022-09-01T20:40:46.086Z,99783.53
2022-09-01T20:43:22.976Z,99781.03
2022-09-01T20:45:27.224Z,99775.69
2022-09-01T20:47:31.337Z,99779.38
2022-09-01T20:49:37.227Z,99782.09
2022-09-01T20:51:48.051Z,99788.16
2022-09-01T20:54:07.090Z,99780.59
2022-09-01T20:56:30.009Z,99771.28
2022-09-01T20:58:58.515Z,99768.84
2022-09-01T21:01:16.863Z,99782.84
2022-09-01T21:03:39.990Z,99768.53
2022-09-01T21:05:52.902Z,99783.75
2022-09-01T21:08:25.968Z,99775.19
2022-09-01T21:10:38.613Z,99777.75
2022-09-01T21:13:39.438Z,99780.31
2022-09-01T21:15:57.363Z,99773.72
2022-09-01T21:18:49.876Z,99770.94
2022-09-01T21:21:03.745Z,99758.63
2022-09-01T21:23:06.855Z,99773.72
2022-09-01T21:25:08.691Z,99782.31
2022-09-01T21:27:20.347Z,99774.38
2022-09-01T21:29:34.079Z,99777.88
2022-09-01T21:31:35.687Z,99780.50
2022-09-01T21:33:37.327Z,99774.69
2022-09-01T21:35:38.944Z,99767.88
2022-09-01T21:37:40.583Z,99767.03
2022-09-01T21:39:42.156Z,99779.56
2022-09-01T21:41:43.795Z,99788.31
2022-09-01T21:43:46.495Z,99770.66
2022-09-01T21:45:48.966Z,99765.63
2022-09-01T21:47:52.095Z,99781.78
2022-09-01T21:49:54.465Z,99774.91
2022-09-01T21:51:56.067Z,99769.63
2022-09-01T21:53:57.655Z,99775.22
2022-09-01T21:55:59.889Z,99784.53
2022-09-01T21:58:01.882Z,99773.25
2022-09-01T22:00:13.088Z,99765.25
2022-09-01T22:02:15.256Z,99771.47
2022-09-01T22:04:18.307Z,99762.06
2022-09-01T22:06:21.138Z,99757.59
2022-09-01T22:08:22.996Z,99765.94
2022-09-01T22:10:28.328Z,99761.31
2022-09-01T22:12:30.202Z,99753.03
2022-09-01T22:14:31.812Z,99773.69
2022-09-01T22:16:33.707Z,99746.44
2022-09-01T22:18:35.483Z,99758.06
2022-09-01T22:20:37.865Z,99750.31
2022-09-01T22:22:41.087Z,99762.22
2022-09-01T22:24:42.657Z,99767.00
2022-09-01T22:26:44.993Z,99768.97
2022-09-01T22:28:47.259Z,99756.56
2022-09-01T22:30:51.127Z,99760.06
2022-09-01T22:32:54.068Z,99768.13
2022-09-01T22:34:55.618Z,99758.22
2022-09-01T22:36:57.285Z,99765.34
2022-09-01T22:38:59.835Z,99755.50
2022-09-01T22:41:02.312Z,99768.59
2022-09-01T22:43:05.622Z,99755.97
2022-09-01T22:45:08.550Z,99764.72
2022-09-01T22:47:10.539Z,99760.19
2022-09-01T22:49:12.359Z,99769.84
2022-09-01T22:51:15.096Z,99768.69
2022-09-01T22:53:19.378Z,99763.72
2022-09-01T22:55:21.027Z,99757.78
2022-09-01T22:57:23.019Z,99758.94
2022-09-01T22:59:24.598Z,99761.59
2022-09-01T23:01:31.550Z,99771.81
2022-09-01T23:03:34.775Z,99757.81
2022-09-01T23:05:36.419Z,99766.47
2022-09-01T23:07:39.802Z,99767.69
2022-09-01T23:09:41.556Z,99746.84
2022-09-01T23:11:43.623Z,99760.44
2022-09-01T23:13:45.467Z,99766.53
2022-09-01T23:15:47.059Z,99755.16
2022-09-01T23:17:48.614Z,99755.16
2022-09-01T23:19:50.312Z,99743.53
2022-09-01T23:21:52.675Z,99750.94
2022-09-01T23:23:58.751Z,99754.28
2022-09-01T23:26:02.374Z,99760.28
2022-09-01T23:28:04.086Z,99737.91
2022-09-01T23:30:08.232Z,99751.00
2022-09-01T23:32:09.909Z,99738.84
2022-09-01T23:34:13.339Z,99729.81
2022-09-01T23:36:18.405Z,99722.16
2022-09-01T23:38:24.703Z,99730.75
2022-09-01T23:40:26.379Z,99735.38
2022-09-01T23:42:28.114Z,99739.03
2022-09-01T23:44:30.150Z,99729.81
2022-09-01T23:46:36.996Z,99729.63
2022-09-01T23:48:38.863Z,99717.53
2022-09-01T23:50:50.883Z,99725.38
2022-09-01T23:52:52.552Z,99742.09
2022-09-01T23:54:54.640Z,99716.16
2022-09-01T23:56:56.244Z,99743.97
2022-09-01T23:58:59.426Z,99722.81
